sensor_id;sensor_type;location;lat;lon;timestamp;pressure;altitude;pressure_sealevel;temperature;humidity
41467;BME280;27205;53.690;19.948;2023-03-14T00:03:34;97881.64;;;11.31;87.01
41467;BME280;27205;53.690;19.948;2023-03-14T00:08:39;97875.89;;;11.23;87.03
41467;BME280;27205;53.690;19.948;2023-03-14T00:13:43;97871.23;;;11.24;86.85
41467;BME280;27205;53.690;19.948;2023-03-14T00:18:46;97871.80;;;11.23;86.56
41467;BME280;27205;53.690;19.948;2023-03-14T00:23:50;97862.80;;;11.25;86.19
41467;BME280;27205;53.690;19.948;2023-03-14T00:28:55;97857.30;;;11.20;86.26
41467;BME280;27205;53.690;19.948;2023-03-14T00:33:58;97851.30;;;11.15;86.19
41467;BME280;27205;53.690;19.948;2023-03-14T00:39:02;97847.23;;;11.16;85.99
41467;BME280;27205;53.690;19.948;2023-03-14T00:44:05;97837.45;;;11.17;86.04
41467;BME280;27205;53.690;19.948;2023-03-14T00:49:08;97824.26;;;11.19;85.76
41467;BME280;27205;53.690;19.948;2023-03-14T00:54:12;97815.71;;;11.20;85.79
41467;BME280;27205;53.690;19.948;2023-03-14T00:59:16;97822.92;;;11.18;85.87
41467;BME280;27205;53.690;19.948;2023-03-14T01:04:19;97831.48;;;11.18;85.53
41467;BME280;27205;53.690;19.948;2023-03-14T01:09:23;97826.07;;;11.21;85.79
41467;BME280;27205;53.690;19.948;2023-03-14T01:14:26;97822.42;;;11.33;85.35
41467;BME280;27205;53.690;19.948;2023-03-14T01:19:30;97819.42;;;11.33;85.52
41467;BME280;27205;53.690;19.948;2023-03-14T01:24:36;97814.61;;;11.36;85.27
41467;BME280;27205;53.690;19.948;2023-03-14T01:29:40;97809.27;;;11.39;84.90
41467;BME280;27205;53.690;19.948;2023-03-14T01:34:43;97794.08;;;11.44;84.70
41467;BME280;27205;53.690;19.948;2023-03-14T01:39:47;97773.56;;;11.52;83.96
41467;BME280;27205;53.690;19.948;2023-03-14T01:44:51;97768.88;;;11.44;83.55
41467;BME280;27205;53.690;19.948;2023-03-14T01:50:08;97758.23;;;11.28;83.17
41467;BME280;27205;53.690;19.948;2023-03-14T01:55:20;97754.85;;;11.14;82.96
41467;BME280;27205;53.690;19.948;2023-03-14T02:00:25;97754.38;;;11.03;83.12
41467;BME280;27205;53.690;19.948;2023-03-14T02:05:32;97745.34;;;10.95;82.36
41467;BME280;27205;53.690;19.948;2023-03-14T02:10:41;97749.52;;;10.84;82.55
41467;BME280;27205;53.690;19.948;2023-03-14T02:15:46;97751.46;;;10.78;82.42
41467;BME280;27205;53.690;19.948;2023-03-14T02:20:58;97751.24;;;10.75;82.15
41467;BME280;27205;53.690;19.948;2023-03-14T02:26:09;97741.14;;;10.74;81.99
41467;BME280;27205;53.690;19.948;2023-03-14T02:31:15;97730.50;;;10.76;81.67
41467;BME280;27205;53.690;19.948;2023-03-14T02:36:20;97722.46;;;10.76;81.31
41467;BME280;27205;53.690;19.948;2023-03-14T02:41:24;97714.71;;;10.75;81.42
41467;BME280;27205;53.690;19.948;2023-03-14T02:46:27;97717.18;;;10.80;80.94
41467;BME280;27205;53.690;19.948;2023-03-14T02:51:32;97712.72;;;10.88;80.64
41467;BME280;27205;53.690;19.948;2023-03-14T02:56:35;97717.25;;;10.95;80.60
41467;BME280;27205;53.690;19.948;2023-03-14T03:01:40;97719.73;;;11.02;80.74
41467;BME280;27205;53.690;19.948;2023-03-14T03:06:43;97728.61;;;11.04;80.25
41467;BME280;27205;53.690;19.948;2023-03-14T03:11:47;97723.85;;;11.05;80.19
41467;BME280;27205;53.690;19.948;2023-03-14T03:16:50;97733.80;;;11.09;79.79
41467;BME280;27205;53.690;19.948;2023-03-14T03:21:54;97740.36;;;11.12;79.64
41467;BME280;27205;53.690;19.948;2023-03-14T03:26:57;97748.15;;;11.10;79.42
41467;BME280;27205;53.690;19.948;2023-03-14T03:32:01;97762.56;;;11.11;79.21
41467;BME280;27205;53.690;19.948;2023-03-14T03:37:05;97770.36;;;11.16;78.85
41467;BME280;27205;53.690;19.948;2023-03-14T03:42:09;97775.60;;;11.22;78.59
41467;BME280;27205;53.690;19.948;2023-03-14T03:47:12;97762.52;;;11.29;78.42
41467;BME280;27205;53.690;19.948;2023-03-14T03:52:16;97776.31;;;11.34;78.49
41467;BME280;27205;53.690;19.948;2023-03-14T03:57:20;97774.98;;;11.38;78.12
41467;BME280;27205;53.690;19.948;2023-03-14T04:02:23;97775.05;;;11.41;77.98
41467;BME280;27205;53.690;19.948;2023-03-14T04:07:27;97771.77;;;11.45;77.67
41467;BME280;27205;53.690;19.948;2023-03-14T04:12:30;97778.05;;;11.44;77.68
41467;BME280;27205;53.690;19.948;2023-03-14T04:17:34;97779.27;;;11.37;77.50
41467;BME280;27205;53.690;19.948;2023-03-14T04:22:38;97771.77;;;11.36;77.72
41467;BME280;27205;53.690;19.948;2023-03-14T04:27:43;97768.70;;;11.31;77.63
41467;BME280;27205;53.690;19.948;2023-03-14T04:32:47;97759.55;;;11.24;77.75
41467;BME280;27205;53.690;19.948;2023-03-14T04:37:50;97749.66;;;11.19;77.71
41467;BME280;27205;53.690;19.948;2023-03-14T04:42:55;97727.77;;;11.11;77.59
41467;BME280;27205;53.690;19.948;2023-03-14T04:47:58;97721.83;;;11.03;77.64
41467;BME280;27205;53.690;19.948;2023-03-14T04:53:02;97710.65;;;10.97;77.62
41467;BME280;27205;53.690;19.948;2023-03-14T04:58:06;97698.87;;;10.95;77.69
41467;BME280;27205;53.690;19.948;2023-03-14T05:03:09;97684.84;;;10.98;77.80
41467;BME280;27205;53.690;19.948;2023-03-14T05:08:13;97685.54;;;11.02;77.96
41467;BME280;27205;53.690;19.948;2023-03-14T05:13:16;97682.52;;;11.06;77.73
41467;BME280;27205;53.690;19.948;2023-03-14T05:18:20;97686.30;;;11.10;77.62
41467;BME280;27205;53.690;19.948;2023-03-14T05:23:23;97689.39;;;11.11;77.83
41467;BME280;27205;53.690;19.948;2023-03-14T05:28:27;97687.55;;;11.18;77.69
41467;BME280;27205;53.690;19.948;2023-03-14T05:33:30;97678.33;;;11.25;77.91
41467;BME280;27205;53.690;19.948;2023-03-14T05:38:33;97684.25;;;11.30;78.05
41467;BME280;27205;53.690;19.948;2023-03-14T05:43:37;97688.41;;;11.35;78.37
41467;BME280;27205;53.690;19.948;2023-03-14T05:48:41;97681.48;;;11.39;77.96
41467;BME280;27205;53.690;19.948;2023-03-14T05:53:44;97685.49;;;11.46;78.07
41467;BME280;27205;53.690;19.948;2023-03-14T05:58:47;97692.23;;;11.54;78.50
41467;BME280;27205;53.690;19.948;2023-03-14T06:03:51;97693.46;;;11.55;78.41
41467;BME280;27205;53.690;19.948;2023-03-14T06:08:54;97694.11;;;11.50;78.69
41467;BME280;27205;53.690;19.948;2023-03-14T06:13:58;97696.10;;;11.59;78.51
41467;BME280;27205;53.690;19.948;2023-03-14T06:19:01;97701.08;;;11.69;78.50
41467;BME280;27205;53.690;19.948;2023-03-14T06:24:05;97707.11;;;11.76;78.36
41467;BME280;27205;53.690;19.948;2023-03-14T06:29:08;97719.83;;;11.79;78.42
41467;BME280;27205;53.690;19.948;2023-03-14T06:34:12;97712.74;;;11.80;78.25
41467;BME280;27205;53.690;19.948;2023-03-14T06:39:15;97705.70;;;11.79;78.28
41467;BME280;27205;53.690;19.948;2023-03-14T06:44:19;97694.86;;;11.91;77.94
41467;BME280;27205;53.690;19.948;2023-03-14T06:49:22;97712.77;;;12.04;78.00
41467;BME280;27205;53.690;19.948;2023-03-14T06:54:26;97715.45;;;12.07;77.90
41467;BME280;27205;53.690;19.948;2023-03-14T06:59:29;97729.35;;;12.12;77.89
41467;BME280;27205;53.690;19.948;2023-03-14T07:04:33;97699.04;;;12.31;77.67
41467;BME280;27205;53.690;19.948;2023-03-14T07:09:37;97685.96;;;12.67;77.58
41467;BME280;27205;53.690;19.948;2023-03-14T07:14:40;97694.28;;;12.92;77.52
41467;BME280;27205;53.690;19.948;2023-03-14T07:19:44;97687.64;;;12.99;77.34
41467;BME280;27205;53.690;19.948;2023-03-14T07:24:47;97699.91;;;12.88;76.91
41467;BME280;27205;53.690;19.948;2023-03-14T07:29:51;97691.24;;;12.80;76.56
41467;BME280;27205;53.690;19.948;2023-03-14T07:34:54;97686.65;;;12.85;76.17
41467;BME280;27205;53.690;19.948;2023-03-14T07:39:58;97689.54;;;12.96;76.04
41467;BME280;27205;53.690;19.948;2023-03-14T07:45:01;97702.70;;;13.05;75.50
41467;BME280;27205;53.690;19.948;2023-03-14T07:50:07;97693.49;;;13.24;75.32
41467;BME280;27205;53.690;19.948;2023-03-14T07:55:10;97693.92;;;13.46;74.92
41467;BME280;27205;53.690;19.948;2023-03-14T08:00:16;97696.94;;;13.56;74.17
41467;BME280;27205;53.690;19.948;2023-03-14T08:05:20;97700.83;;;13.63;74.11
41467;BME280;27205;53.690;19.948;2023-03-14T08:10:24;97699.86;;;13.68;73.60
41467;BME280;27205;53.690;19.948;2023-03-14T08:15:29;97689.38;;;13.71;73.06
41467;BME280;27205;53.690;19.948;2023-03-14T08:20:33;97687.96;;;13.85;72.37
41467;BME280;27205;53.690;19.948;2023-03-14T08:25:37;97690.84;;;14.03;72.48
41467;BME280;27205;53.690;19.948;2023-03-14T08:30:41;97673.98;;;14.19;71.50
41467;BME280;27205;53.690;19.948;2023-03-14T08:35:55;97686.94;;;14.36;71.20
41467;BME280;27205;53.690;19.948;2023-03-14T08:41:00;97682.39;;;14.57;70.59
41467;BME280;27205;53.690;19.948;2023-03-14T08:46:05;97670.48;;;14.81;70.40
41467;BME280;27205;53.690;19.948;2023-03-14T08:51:10;97653.79;;;15.05;70.01
41467;BME280;27205;53.690;19.948;2023-03-14T08:56:15;97646.16;;;15.13;69.61
41467;BME280;27205;53.690;19.948;2023-03-14T09:01:18;97640.96;;;15.27;69.27
41467;BME280;27205;53.690;19.948;2023-03-14T09:06:22;97649.06;;;15.35;68.54
41467;BME280;27205;53.690;19.948;2023-03-14T09:11:26;97640.08;;;15.31;68.09
41467;BME280;27205;53.690;19.948;2023-03-14T09:16:29;97626.91;;;15.37;68.04
41467;BME280;27205;53.690;19.948;2023-03-14T09:21:33;97626.92;;;15.43;67.89
41467;BME280;27205;53.690;19.948;2023-03-14T09:26:36;97629.19;;;15.59;68.09
41467;BME280;27205;53.690;19.948;2023-03-14T09:31:40;97631.89;;;15.85;67.49
41467;BME280;27205;53.690;19.948;2023-03-14T09:36:45;97625.80;;;16.09;67.23
41467;BME280;27205;53.690;19.948;2023-03-14T09:41:50;97616.84;;;16.16;67.14
41467;BME280;27205;53.690;19.948;2023-03-14T09:46:58;97617.70;;;16.24;67.29
41467;BME280;27205;53.690;19.948;2023-03-14T09:52:31;97617.63;;;16.17;66.79
41467;BME280;27205;53.690;19.948;2023-03-14T09:57:36;97605.11;;;16.25;66.59
41467;BME280;27205;53.690;19.948;2023-03-14T10:02:42;97618.45;;;16.34;66.23
41467;BME280;27205;53.690;19.948;2023-03-14T10:07:46;97621.38;;;16.32;65.24
41467;BME280;27205;53.690;19.948;2023-03-14T10:12:59;97634.95;;;16.26;64.86
41467;BME280;27205;53.690;19.948;2023-03-14T10:18:05;97639.54;;;16.20;64.26
41467;BME280;27205;53.690;19.948;2023-03-14T10:28:29;97639.10;;;16.17;63.45
41467;BME280;27205;53.690;19.948;2023-03-14T10:33:36;97638.95;;;16.02;63.81
41467;BME280;27205;53.690;19.948;2023-03-14T10:38:40;97635.17;;;16.01;63.87
41467;BME280;27205;53.690;19.948;2023-03-14T10:43:43;97634.38;;;15.88;63.53
41467;BME280;27205;53.690;19.948;2023-03-14T10:48:47;97623.49;;;15.85;63.49
41467;BME280;27205;53.690;19.948;2023-03-14T10:59:00;97624.93;;;16.06;62.92
41467;BME280;27205;53.690;19.948;2023-03-14T11:20:35;97607.38;;;15.80;62.80
41467;BME280;27205;53.690;19.948;2023-03-14T11:31:29;97594.48;;;15.74;63.06
41467;BME280;27205;53.690;19.948;2023-03-14T11:36:41;97599.84;;;16.27;62.95
41467;BME280;27205;53.690;19.948;2023-03-14T11:41:49;97610.58;;;16.62;62.46
41467;BME280;27205;53.690;19.948;2023-03-14T11:47:03;97592.13;;;16.72;61.89
41467;BME280;27205;53.690;19.948;2023-03-14T11:57:37;97595.29;;;16.49;61.78
41467;BME280;27205;53.690;19.948;2023-03-14T12:08:25;97598.73;;;16.14;61.81
41467;BME280;27205;53.690;19.948;2023-03-14T12:13:37;97595.48;;;15.83;61.95
41467;BME280;27205;53.690;19.948;2023-03-14T12:18:40;97600.17;;;15.50;62.08
41467;BME280;27205;53.690;19.948;2023-03-14T12:39:35;97615.45;;;14.82;63.07
41467;BME280;27205;53.690;19.948;2023-03-14T12:44:50;97603.10;;;14.73;63.47
41467;BME280;27205;53.690;19.948;2023-03-14T12:49:54;97598.15;;;14.73;63.72
41467;BME280;27205;53.690;19.948;2023-03-14T12:55:15;97604.83;;;14.68;63.92
41467;BME280;27205;53.690;19.948;2023-03-14T13:00:29;97601.48;;;14.67;64.26
41467;BME280;27205;53.690;19.948;2023-03-14T13:05:33;97603.20;;;14.58;64.54
41467;BME280;27205;53.690;19.948;2023-03-14T13:10:42;97603.92;;;14.53;64.76
41467;BME280;27205;53.690;19.948;2023-03-14T13:15:49;97602.89;;;14.49;64.84
41467;BME280;27205;53.690;19.948;2023-03-14T13:21:01;97606.83;;;14.41;65.17
41467;BME280;27205;53.690;19.948;2023-03-14T13:26:13;97602.77;;;14.38;65.27
41467;BME280;27205;53.690;19.948;2023-03-14T13:31:24;97604.79;;;14.38;65.36
41467;BME280;27205;53.690;19.948;2023-03-14T13:36:27;97611.18;;;14.41;65.35
41467;BME280;27205;53.690;19.948;2023-03-14T13:41:31;97610.39;;;14.33;65.52
41467;BME280;27205;53.690;19.948;2023-03-14T13:46:36;97606.09;;;14.15;65.47
41467;BME280;27205;53.690;19.948;2023-03-14T13:51:40;97602.39;;;14.07;65.43
41467;BME280;27205;53.690;19.948;2023-03-14T13:56:44;97603.08;;;14.01;65.74
41467;BME280;27205;53.690;19.948;2023-03-14T14:01:47;97606.73;;;14.02;65.69
41467;BME280;27205;53.690;19.948;2023-03-14T14:17:31;97575.61;;;14.87;65.64
41467;BME280;27205;53.690;19.948;2023-03-14T14:22:36;97588.09;;;15.45;65.05
41467;BME280;27205;53.690;19.948;2023-03-14T14:27:43;97590.86;;;15.81;64.38
41467;BME280;27205;53.690;19.948;2023-03-14T14:32:50;97587.20;;;15.95;63.71
41467;BME280;27205;53.690;19.948;2023-03-14T14:37:54;97591.27;;;16.30;62.81
41467;BME280;27205;53.690;19.948;2023-03-14T14:43:04;97587.75;;;16.76;62.52
41467;BME280;27205;53.690;19.948;2023-03-14T14:48:13;97590.98;;;17.29;61.66
41467;BME280;27205;53.690;19.948;2023-03-14T14:53:25;97592.92;;;17.52;60.98
41467;BME280;27205;53.690;19.948;2023-03-14T14:58:35;97602.32;;;17.00;60.98
41467;BME280;27205;53.690;19.948;2023-03-14T15:03:47;97592.12;;;16.16;60.23
41467;BME280;27205;53.690;19.948;2023-03-14T15:08:52;97595.86;;;15.57;60.68
41467;BME280;27205;53.690;19.948;2023-03-14T15:13:56;97593.30;;;15.02;61.25
41467;BME280;27205;53.690;19.948;2023-03-14T15:19:01;97593.34;;;14.59;61.64
41467;BME280;27205;53.690;19.948;2023-03-14T15:24:25;97599.23;;;14.32;62.07
41467;BME280;27205;53.690;19.948;2023-03-14T15:29:28;97599.89;;;14.08;62.34
41467;BME280;27205;53.690;19.948;2023-03-14T15:34:32;97594.39;;;13.89;62.80
41467;BME280;27205;53.690;19.948;2023-03-14T15:39:35;97588.75;;;13.79;63.24
41467;BME280;27205;53.690;19.948;2023-03-14T15:44:39;97594.31;;;13.67;63.35
41467;BME280;27205;53.690;19.948;2023-03-14T15:49:42;97602.98;;;13.57;63.89
41467;BME280;27205;53.690;19.948;2023-03-14T15:54:46;97609.77;;;13.62;64.19
41467;BME280;27205;53.690;19.948;2023-03-14T15:59:49;97602.48;;;13.99;64.35
41467;BME280;27205;53.690;19.948;2023-03-14T16:04:53;97603.81;;;14.17;64.36
41467;BME280;27205;53.690;19.948;2023-03-14T16:09:56;97602.98;;;14.20;64.59
41467;BME280;27205;53.690;19.948;2023-03-14T16:15:00;97600.48;;;14.25;64.53
41467;BME280;27205;53.690;19.948;2023-03-14T16:20:05;97604.56;;;14.12;64.59
41467;BME280;27205;53.690;19.948;2023-03-14T16:25:09;97608.90;;;13.91;64.66
41467;BME280;27205;53.690;19.948;2023-03-14T16:30:12;97609.56;;;13.68;64.78
41467;BME280;27205;53.690;19.948;2023-03-14T16:35:16;97619.08;;;13.46;64.89
41467;BME280;27205;53.690;19.948;2023-03-14T16:40:19;97625.59;;;13.31;65.06
41467;BME280;27205;53.690;19.948;2023-03-14T16:45:23;97623.14;;;13.17;65.45
41467;BME280;27205;53.690;19.948;2023-03-14T16:50:26;97627.13;;;12.99;65.56
41467;BME280;27205;53.690;19.948;2023-03-14T16:55:29;97632.16;;;12.87;65.44
41467;BME280;27205;53.690;19.948;2023-03-14T17:00:33;97633.73;;;12.74;65.85
41467;BME280;27205;53.690;19.948;2023-03-14T17:05:37;97635.02;;;12.61;66.30
41467;BME280;27205;53.690;19.948;2023-03-14T17:10:46;97636.77;;;12.55;66.55
41467;BME280;27205;53.690;19.948;2023-03-14T17:15:55;97637.26;;;12.49;66.75
41467;BME280;27205;53.690;19.948;2023-03-14T17:21:00;97633.73;;;12.45;67.14
41467;BME280;27205;53.690;19.948;2023-03-14T17:26:03;97634.62;;;12.40;67.31
41467;BME280;27205;53.690;19.948;2023-03-14T17:31:15;97634.21;;;12.40;67.51
41467;BME280;27205;53.690;19.948;2023-03-14T17:36:20;97640.34;;;12.42;67.52
41467;BME280;27205;53.690;19.948;2023-03-14T17:41:28;97648.89;;;12.39;67.70
41467;BME280;27205;53.690;19.948;2023-03-14T17:46:31;97648.98;;;12.33;68.19
41467;BME280;27205;53.690;19.948;2023-03-14T17:51:34;97653.45;;;12.26;68.60
41467;BME280;27205;53.690;19.948;2023-03-14T17:56:38;97659.37;;;12.19;68.33
41467;BME280;27205;53.690;19.948;2023-03-14T18:01:41;97660.28;;;12.09;68.85
41467;BME280;27205;53.690;19.948;2023-03-14T18:06:45;97663.03;;;11.98;69.03
41467;BME280;27205;53.690;19.948;2023-03-14T18:11:48;97661.32;;;11.91;69.10
41467;BME280;27205;53.690;19.948;2023-03-14T18:17:04;97668.93;;;11.82;69.55
41467;BME280;27205;53.690;19.948;2023-03-14T18:22:08;97671.91;;;11.76;69.54
41467;BME280;27205;53.690;19.948;2023-03-14T18:27:11;97668.91;;;11.70;69.95
41467;BME280;27205;53.690;19.948;2023-03-14T18:32:16;97670.95;;;11.64;70.19
41467;BME280;27205;53.690;19.948;2023-03-14T18:37:20;97678.27;;;11.61;70.34
41467;BME280;27205;53.690;19.948;2023-03-14T18:42:23;97681.08;;;11.53;70.76
41467;BME280;27205;53.690;19.948;2023-03-14T18:47:26;97679.07;;;11.44;71.28
41467;BME280;27205;53.690;19.948;2023-03-14T18:52:30;97678.05;;;11.40;71.42
41467;BME280;27205;53.690;19.948;2023-03-14T18:57:34;97684.83;;;11.39;71.49
41467;BME280;27205;53.690;19.948;2023-03-14T19:02:38;97686.84;;;11.39;72.30
41467;BME280;27205;53.690;19.948;2023-03-14T19:07:42;97689.09;;;11.39;72.48
41467;BME280;27205;53.690;19.948;2023-03-14T19:12:45;97693.29;;;11.42;72.82
41467;BME280;27205;53.690;19.948;2023-03-14T19:17:50;97693.92;;;11.45;73.04
41467;BME280;27205;53.690;19.948;2023-03-14T19:22:53;97695.36;;;11.43;73.33
41467;BME280;27205;53.690;19.948;2023-03-14T19:28:00;97695.53;;;11.45;73.53
41467;BME280;27205;53.690;19.948;2023-03-14T19:33:03;97704.09;;;11.46;74.00
41467;BME280;27205;53.690;19.948;2023-03-14T19:38:07;97709.84;;;11.47;73.92
41467;BME280;27205;53.690;19.948;2023-03-14T19:43:11;97712.27;;;11.52;73.81
41467;BME280;27205;53.690;19.948;2023-03-14T19:48:15;97702.77;;;11.53;74.09
41467;BME280;27205;53.690;19.948;2023-03-14T19:53:18;97701.11;;;11.54;73.94
41467;BME280;27205;53.690;19.948;2023-03-14T19:58:23;97702.23;;;11.50;74.15
41467;BME280;27205;53.690;19.948;2023-03-14T20:03:27;97709.34;;;11.54;74.11
41467;BME280;27205;53.690;19.948;2023-03-14T20:08:30;97713.36;;;11.52;74.32
41467;BME280;27205;53.690;19.948;2023-03-14T20:13:34;97722.70;;;11.55;74.17
41467;BME280;27205;53.690;19.948;2023-03-14T20:18:38;97731.57;;;11.56;74.16
41467;BME280;27205;53.690;19.948;2023-03-14T20:23:41;97734.44;;;11.51;74.56
41467;BME280;27205;53.690;19.948;2023-03-14T20:28:46;97733.03;;;11.50;74.57
41467;BME280;27205;53.690;19.948;2023-03-14T20:33:50;97728.91;;;11.48;74.78
41467;BME280;27205;53.690;19.948;2023-03-14T20:38:53;97730.05;;;11.46;74.85
41467;BME280;27205;53.690;19.948;2023-03-14T20:43:57;97734.31;;;11.43;74.87
41467;BME280;27205;53.690;19.948;2023-03-14T20:49:00;97744.77;;;11.44;75.15
41467;BME280;27205;53.690;19.948;2023-03-14T20:54:04;97747.88;;;11.50;75.01
41467;BME280;27205;53.690;19.948;2023-03-14T20:59:12;97752.13;;;11.49;75.06
41467;BME280;27205;53.690;19.948;2023-03-14T21:04:16;97755.41;;;11.43;75.31
41467;BME280;27205;53.690;19.948;2023-03-14T21:09:24;97751.56;;;11.40;75.31
41467;BME280;27205;53.690;19.948;2023-03-14T21:14:28;97751.60;;;11.35;75.31
41467;BME280;27205;53.690;19.948;2023-03-14T21:19:31;97747.86;;;11.28;75.38
41467;BME280;27205;53.690;19.948;2023-03-14T21:24:35;97750.90;;;11.23;75.76
41467;BME280;27205;53.690;19.948;2023-03-14T21:29:38;97746.16;;;11.16;75.61
41467;BME280;27205;53.690;19.948;2023-03-14T21:34:42;97743.04;;;11.08;75.82
41467;BME280;27205;53.690;19.948;2023-03-14T21:39:45;97746.75;;;11.04;75.57
41467;BME280;27205;53.690;19.948;2023-03-14T21:44:49;97751.81;;;10.97;75.88
41467;BME280;27205;53.690;19.948;2023-03-14T21:49:54;97751.27;;;10.96;76.12
41467;BME280;27205;53.690;19.948;2023-03-14T21:54:57;97788.63;;;10.97;76.12
41467;BME280;27205;53.690;19.948;2023-03-14T22:00:00;97910.23;;;10.05;74.55
41467;BME280;27205;53.690;19.948;2023-03-14T22:05:04;97923.43;;;7.60;75.38
41467;BME280;27205;53.690;19.948;2023-03-14T22:10:10;97973.16;;;5.96;78.74
41467;BME280;27205;53.690;19.948;2023-03-14T22:15:14;98030.12;;;4.98;83.12
41467;BME280;27205;53.690;19.948;2023-03-14T22:20:18;98003.90;;;4.41;86.82
41467;BME280;27205;53.690;19.948;2023-03-14T22:25:21;98033.50;;;3.93;89.28
41467;BME280;27205;53.690;19.948;2023-03-14T22:30:25;98032.98;;;3.42;90.55
41467;BME280;27205;53.690;19.948;2023-03-14T22:35:29;98026.50;;;3.14;92.17
41467;BME280;27205;53.690;19.948;2023-03-14T22:40:32;98058.61;;;3.11;93.78
41467;BME280;27205;53.690;19.948;2023-03-14T22:45:36;98082.11;;;3.09;94.28
41467;BME280;27205;53.690;19.948;2023-03-14T22:50:39;98107.61;;;3.01;94.56
41467;BME280;27205;53.690;19.948;2023-03-14T22:55:43;98125.02;;;2.92;95.24
41467;BME280;27205;53.690;19.948;2023-03-14T23:00:47;98136.52;;;2.91;95.95
41467;BME280;27205;53.690;19.948;2023-03-14T23:05:51;98157.40;;;2.90;96.51
41467;BME280;27205;53.690;19.948;2023-03-14T23:10:59;98198.65;;;2.88;96.73
41467;BME280;27205;53.690;19.948;2023-03-14T23:16:03;98198.37;;;2.83;97.03
41467;BME280;27205;53.690;19.948;2023-03-14T23:21:13;98223.71;;;2.76;96.99
41467;BME280;27205;53.690;19.948;2023-03-14T23:26:20;98247.10;;;2.64;97.20
41467;BME280;27205;53.690;19.948;2023-03-14T23:31:24;98265.25;;;2.57;97.61
41467;BME280;27205;53.690;19.948;2023-03-14T23:36:28;98293.36;;;2.57;97.82
41467;BME280;27205;53.690;19.948;2023-03-14T23:41:31;98307.83;;;2.57;97.64
41467;BME280;27205;53.690;19.948;2023-03-14T23:46:35;98307.08;;;2.55;97.86
41467;BME280;27205;53.690;19.948;2023-03-14T23:51:38;98316.92;;;2.53;98.16
41467;BME280;27205;53.690;19.948;2023-03-14T23:56:42;98327.27;;;2.52;98.37
